|
公曆農曆對照

機場天氣預報 (TAF)

機場天氣預報 (TAF) 載述關於某個機場在預測期內預料會出現的氣象要素。

香港天文台在 19 年 06 月 24 日 13 時 00 分最新發出的香港國際機場天氣預報

TAF VHHH 240500Z 2406/2512 22010KT 8000 FEW010 SCT025 TX31/2406Z TX31/2506Z TN28/2418Z TEMPO 2406/2412 3000 -TSRA SHRA FEW010CB SCT025 TEMPO 2412/2415 3000 SHRA FEW015CB SCT030 TEMPO 2415/2418 VRB15G25KT 2500 TSRA SHRA FEW010CB SCT020 BKN040 TEMPO 2421/2503 3000 -TSRA SHRA FEW015CB SCT025=

(下次更新時間:19年06月24日19時00分)

機場天氣預報電碼經解碼後:-

香港天文台發出 2019 年 06 月 24 日 06 協調世界時 至 2019 年 06 月 25 日 12 協調世界時 的機場天氣預報:
 

時間(協調世界時) 能見度 天氣狀況 雲層 雲層高度
2019 年 06 月 24 日 06 時 至 2019 年 06 月 25 日 12 時 西南風 (220 o) 10 海里/小時 8 公里 無重要天氣狀況
1-2
3-4
1000 呎
2500 呎
2019 年 06 月 24 日 06 時 至 12 時 期間間中 西南風 (220 o) 10 海里/小時 3000 米 雷暴及微雨, 驟雨
1-2 積雨雲
3-4
1000 呎
2500 呎
2019 年 06 月 24 日 12 時 至 15 時 期間間中 西南風 (220 o) 10 海里/小時 3000 米 驟雨
1-2 積雨雲
3-4
1500 呎
3000 呎
2019 年 06 月 24 日 15 時 至 18 時 期間間中 15 海里/小時,陣風達 25 海里/小時 (風向不定) 2500 米 雷暴及雨, 驟雨
1-2 積雨雲
3-4
5-7
1000 呎
2000 呎
4000 呎
2019 年 06 月 24 日 21 時 至 2019 年 06 月 25 日 03 時 期間間中 西南風 (220 o) 10 海里/小時 3000 米 雷暴及微雨, 驟雨
1-2 積雨雲
3-4
1500 呎
2500 呎

時間(協調世界時) 氣溫
2019 年 06 月 24 日 06 時
最高31 oC
2019 年 06 月 25 日 06 時
最高31 oC
2019 年 06 月 24 日 18 時
最低28 oC

份: 雲層是以估計天空被雲遮蔽之總面積來評定。把天空分為八份,1 份即是八份之一的天空被雲遮蔽,2 份即是八份之二的天空被雲遮蔽,如此類推。
  0 份 = 天朗氣清,1-2 份 = 稀薄雲層,3-4 份 = 零散雲層,5-7 份 = 疏鬆雲層,8 份 = 天色陰暗。
若想進一步瞭解機場天氣預報(TAF)的編碼,請參看剖析TAF電碼的意義
若想進一步瞭解雲,請參看香港常見的雲
 
香港國際機場航空天氣報告資料 本港地區航空天氣預報
 
版權及聲明